Time;durP1;ratioP1;P1;durP2;ratioP2;P2;SDS_P1;SDS_P2;PMS_P1;PMS_P2;Temp;Humidity;BMP_temperature;BMP_pressure;BME280_temperature;BME280_humidity;BME280_pressure;Samples;Min_cycle;Max_cycle;Signal;HPM_P1;HPM_P2
2023/03/01 00:04:38;;;;;;;25.40;13.57;;;;;;;-8.02;100.00;97693.44;10407495;28;20276;-65
2023/03/01 00:09:39;;;;;;;29.10;16.20;;;;;;;-8.03;100.00;97683.28;10406795;28;20224;-64
2023/03/01 00:14:40;;;;;;;29.97;14.67;;;;;;;-8.04;100.00;97684.97;10407315;28;20197;-66
2023/03/01 00:19:40;;;;;;;25.03;14.07;;;;;;;-8.05;100.00;97696.00;10406847;28;20292;-65
2023/03/01 00:24:41;;;;;;;34.23;12.57;;;;;;;-8.00;100.00;97688.34;10407406;28;20200;-65
2023/03/01 00:29:41;;;;;;;26.70;13.83;;;;;;;-7.91;100.00;97688.22;10406929;28;20224;-64
2023/03/01 00:34:41;;;;;;;29.87;15.43;;;;;;;-8.00;100.00;97686.63;10407052;28;20277;-67
2023/03/01 00:39:42;;;;;;;22.20;12.43;;;;;;;-7.99;100.00;97687.44;10406813;28;20231;-66
2023/03/01 00:44:42;;;;;;;26.43;13.17;;;;;;;-7.96;100.00;97687.41;10406780;28;20185;-64
2023/03/01 00:49:43;;;;;;;16.93;6.70;;;;;;;-7.88;100.00;97685.63;10406411;28;20601;-64
2023/03/01 00:54:43;;;;;;;23.37;13.17;;;;;;;-7.91;100.00;97676.34;10406858;28;20276;-64
2023/03/01 00:59:43;;;;;;;23.93;11.93;;;;;;;-7.98;100.00;97664.53;10388406;28;20218;-65
2023/03/01 01:04:44;;;;;;;24.70;13.10;;;;;;;-7.99;100.00;97662.88;10388871;28;20193;-64
2023/03/01 01:09:45;;;;;;;16.90;9.17;;;;;;;-7.97;100.00;97665.41;10405754;28;20227;-64
2023/03/01 01:14:46;;;;;;;18.37;9.63;;;;;;;-7.98;100.00;97659.47;10388379;28;20595;-64
2023/03/01 01:19:46;;;;;;;13.97;7.07;;;;;;;-8.06;100.00;97666.34;10388291;28;20258;-63
2023/03/01 01:24:46;;;;;;;24.73;11.93;;;;;;;-8.09;100.00;97653.69;10391658;28;20198;-64
2023/03/01 01:29:47;;;;;;;21.93;11.03;;;;;;;-8.12;100.00;97658.81;10395317;28;20232;-63
2023/03/01 01:34:47;;;;;;;22.00;11.90;;;;;;;-8.18;100.00;97652.09;10398772;28;20200;-64
2023/03/01 01:39:47;;;;;;;21.97;11.97;;;;;;;-8.18;100.00;97636.00;10371872;28;20205;-63
2023/03/01 01:44:48;;;;;;;20.87;9.70;;;;;;;-8.29;100.00;97624.25;10354452;28;20193;-64
2023/03/01 01:49:56;;;;;;;23.57;11.07;;;;;;;-8.38;100.00;97618.44;10371066;28;20737;-63
2023/03/01 01:55:02;;;;;;;19.23;7.90;;;;;;;-8.39;100.00;97614.22;10371542;28;20243;-62
2023/03/01 02:00:14;;;;;;;25.53;11.70;;;;;;;-8.39;100.00;97620.16;10369462;28;20205;-64
2023/03/01 02:05:24;;;;;;;30.93;16.00;;;;;;;-8.42;100.00;97612.56;10371241;28;20193;-62
2023/03/01 02:10:25;;;;;;;27.17;13.43;;;;;;;-8.46;100.00;97621.94;10352663;28;20229;-64
2023/03/01 02:15:26;;;;;;;17.33;9.90;;;;;;;-8.42;100.00;97621.03;10370664;28;20185;-63
2023/03/01 02:20:39;;;;;;;24.47;12.40;;;;;;;-8.37;100.00;97615.06;10370353;28;20193;-62
2023/03/01 02:25:58;;;;;;;34.37;16.73;;;;;;;-8.54;100.00;97612.75;10370581;28;20206;-64
2023/03/01 02:36:30;;;;;;;28.63;14.87;;;;;;;-8.66;100.00;97606.94;10369616;28;20209;-64
2023/03/01 02:41:33;;;;;;;24.13;13.47;;;;;;;-8.74;100.00;97601.09;10369259;28;20193;-64
2023/03/01 02:46:33;;;;;;;21.77;10.53;;;;;;;-8.73;100.00;97600.22;10351431;28;20608;-65
2023/03/01 02:51:45;;;;;;;29.00;14.87;;;;;;;-8.80;100.00;97606.25;10369287;28;20289;-65
2023/03/01 02:56:48;;;;;;;25.60;13.40;;;;;;;-8.74;100.00;97596.03;10351356;28;20631;-66
2023/03/01 03:01:49;;;;;;;27.63;13.70;;;;;;;-8.63;100.00;97593.38;10351309;28;20196;-63
2023/03/01 03:06:50;;;;;;;23.07;11.90;;;;;;;-8.92;100.00;97579.28;10367973;28;20213;-64
2023/03/01 03:11:51;;;;;;;24.60;12.20;;;;;;;-8.99;100.00;97572.56;10368708;28;20221;-64
2023/03/01 03:16:53;;;;;;;26.53;14.33;;;;;;;-8.84;100.00;97569.03;10349993;28;20212;-65
2023/03/01 03:21:53;;;;;;;20.17;10.23;;;;;;;-8.84;100.00;97566.50;10350775;28;20186;-64
2023/03/01 03:26:53;;;;;;;41.43;19.40;;;;;;;-8.89;100.00;97573.34;10367647;28;20209;-65
2023/03/01 03:31:54;;;;;;;20.67;10.87;;;;;;;-8.99;100.00;97558.22;10367608;28;20217;-63
2023/03/01 03:36:56;;;;;;;20.67;11.10;;;;;;;-8.94;100.00;97552.22;10367026;28;20295;-64
2023/03/01 03:41:56;;;;;;;22.50;11.13;;;;;;;-8.94;100.00;97557.28;10366511;28;20248;-64
2023/03/01 03:46:57;;;;;;;19.77;9.83;;;;;;;-9.01;100.00;97554.00;10365998;28;20729;-65
2023/03/01 03:51:57;;;;;;;16.80;8.77;;;;;;;-9.09;100.00;97553.25;10365656;28;20767;-61
2023/03/01 03:56:57;;;;;;;17.80;8.63;;;;;;;-9.16;100.00;97568.53;10366969;28;20785;-64
2023/03/01 04:01:58;;;;;;;50.93;21.77;;;;;;;-9.23;100.00;97566.03;10367352;28;20663;-65
2023/03/01 04:06:58;;;;;;;17.40;9.40;;;;;;;-9.23;100.00;97564.34;10406945;28;20762;-65
2023/03/01 04:11:58;;;;;;;23.00;11.87;;;;;;;-9.28;100.00;97566.06;10407523;28;20765;-65
2023/03/01 04:16:59;;;;;;;25.37;8.60;;;;;;;-9.44;100.00;97559.47;10407185;28;20218;-64
2023/03/01 04:21:59;;;;;;;29.27;13.93;;;;;;;-9.39;100.00;97565.34;10407356;28;20188;-66
2023/03/01 04:26:59;;;;;;;30.17;15.73;;;;;;;-9.55;100.00;97554.50;10407110;28;20682;-65
2023/03/01 04:32:00;;;;;;;21.83;10.90;;;;;;;-9.53;100.00;97547.72;10407039;28;20797;-66
2023/03/01 04:37:00;;;;;;;49.50;19.50;;;;;;;-9.58;100.00;97549.44;10406889;28;20682;-66
2023/03/01 04:42:00;;;;;;;42.90;17.67;;;;;;;-9.64;100.00;97549.50;10406955;28;20997;-65
2023/03/01 04:47:01;;;;;;;35.83;15.17;;;;;;;-9.57;100.00;97558.72;10406212;28;21015;-66
2023/03/01 04:52:02;;;;;;;33.17;14.40;;;;;;;-9.52;100.00;97555.31;10406842;28;20690;-65
2023/03/01 04:57:03;;;;;;;55.37;22.70;;;;;;;-9.53;100.00;97547.72;10406669;28;20711;-64
2023/03/01 05:02:03;;;;;;;39.20;16.47;;;;;;;-9.63;100.00;97552.03;10414393;28;20258;-65
2023/03/01 05:07:03;;;;;;;40.07;17.03;;;;;;;-9.51;100.00;97554.47;10413917;28;20213;-65
2023/03/01 05:12:04;;;;;;;29.43;12.00;;;;;;;-9.54;100.00;97556.16;10415608;28;20694;-65
2023/03/01 05:17:05;;;;;;;47.43;20.00;;;;;;;-9.74;100.00;97551.25;10421792;28;20263;-66
2023/03/01 05:22:05;;;;;;;41.17;18.57;;;;;;;-9.77;100.00;97536.94;10413845;28;20199;-65
2023/03/01 05:27:06;;;;;;;39.13;16.93;;;;;;;-9.95;100.00;97534.50;10414114;28;20215;-64
2023/03/01 05:32:06;;;;;;;29.83;12.37;;;;;;;-10.00;100.00;97538.78;10416970;28;20224;-65
2023/03/01 05:37:07;;;;;;;36.90;18.30;;;;;;;-9.87;100.00;97526.00;10413423;28;20212;-66
2023/03/01 05:42:11;;;;;;;27.43;13.83;;;;;;;-9.88;100.00;97531.06;10413374;28;20189;-66
2023/03/01 05:47:11;;;;;;;27.43;13.17;;;;;;;-9.79;100.00;97538.63;10411701;28;20240;-66
2023/03/01 05:52:12;;;;;;;27.50;11.43;;;;;;;-9.93;100.00;97538.72;10433459;22;20260;-67
2023/03/01 05:57:12;;;;;;;26.87;14.00;;;;;;;-9.94;100.00;97538.72;10415269;28;20200;-67
2023/03/01 06:02:12;;;;;;;38.17;15.10;;;;;;;-9.88;100.00;97546.28;10415118;28;20287;-66
2023/03/01 06:07:13;;;;;;;35.20;15.63;;;;;;;-9.93;100.00;97541.25;10414665;28;20196;-67
2023/03/01 06:12:13;;;;;;;15.87;7.67;;;;;;;-9.99;100.00;97537.94;10413948;28;20227;-67
2023/03/01 06:17:14;;;;;;;38.73;20.40;;;;;;;-9.90;100.00;97546.28;10414601;28;20204;-67
2023/03/01 06:22:14;;;;;;;32.23;15.57;;;;;;;-9.82;100.00;97538.63;10414372;28;20319;-67
2023/03/01 06:27:14;;;;;;;26.03;11.60;;;;;;;-10.11;100.00;97547.28;10414278;28;20192;-67
2023/03/01 06:32:15;;;;;;;36.30;13.87;;;;;;;-10.09;100.00;97542.19;10413743;28;20290;-67
2023/03/01 06:37:15;;;;;;;16.87;7.50;;;;;;;-9.93;100.00;97530.28;10413808;28;20283;-67
2023/03/01 06:42:16;;;;;;;28.73;13.57;;;;;;;-9.94;100.00;97526.06;10413670;28;20224;-67
2023/03/01 06:47:16;;;;;;;26.23;11.37;;;;;;;-9.91;100.00;97533.63;10413405;28;20193;-66
2023/03/01 06:52:17;;;;;;;35.20;15.13;;;;;;;-9.66;100.00;97533.44;10413079;28;20315;-65
2023/03/01 06:57:17;;;;;;;18.37;8.90;;;;;;;-9.43;100.00;97558.59;10413048;28;20532;-65
2023/03/01 07:02:17;;;;;;;30.63;13.53;;;;;;;-8.74;100.00;97552.84;10409120;28;20593;-68
2023/03/01 07:07:18;;;;;;;20.23;10.27;;;;;;;-7.84;100.00;97538.91;10384981;28;20898;-67
2023/03/01 07:12:18;;;;;;;27.53;12.93;;;;;;;-7.25;100.00;97529.47;10371584;28;20224;-69
2023/03/01 07:17:19;;;;;;;27.47;14.27;;;;;;;-7.00;100.00;97512.06;10371202;28;20194;-67
2023/03/01 07:22:19;;;;;;;24.00;11.87;;;;;;;-6.43;100.00;97491.38;10389159;28;20342;-67
2023/03/01 07:27:19;;;;;;;29.17;13.23;;;;;;;-6.74;100.00;97464.00;10412125;28;20199;-67
2023/03/01 07:32:20;;;;;;;26.80;14.80;;;;;;;-6.66;100.00;97451.94;10411482;28;20230;-68
2023/03/01 07:37:20;;;;;;;19.90;10.23;;;;;;;-5.93;100.00;97449.44;10411770;28;20274;-67
2023/03/01 07:42:20;;;;;;;27.70;13.17;;;;;;;-5.92;100.00;97443.44;10409705;28;20231;-68
2023/03/01 07:47:21;;;;;;;25.97;13.60;;;;;;;-5.34;98.11;97431.78;10406228;28;20195;-66
2023/03/01 07:52:21;;;;;;;30.80;14.40;;;;;;;-4.74;97.30;97427.56;10407675;28;20343;-67
2023/03/01 07:57:21;;;;;;;34.53;13.77;;;;;;;-4.02;92.76;97398.94;10409362;28;20196;-67
2023/03/01 08:02:22;;;;;;;28.10;13.57;;;;;;;-3.17;91.94;97402.06;10408549;28;20211;-67
2023/03/01 08:07:22;;;;;;;25.03;13.53;;;;;;;-2.23;84.98;97339.50;10408457;28;20192;-68
2023/03/01 08:12:22;;;;;;;27.10;13.93;;;;;;;-2.56;84.39;97339.09;10407963;28;20227;-67
2023/03/01 08:17:23;;;;;;;23.30;13.03;;;;;;;-0.57;82.33;97336.59;10406706;28;20188;-66
2023/03/01 08:22:23;;;;;;;28.63;14.30;;;;;;;-0.05;76.93;97275.75;10406681;28;20238;-65
2023/03/01 08:27:23;;;;;;;29.37;15.33;;;;;;;0.35;74.13;97247.94;10408462;28;20239;-65
2023/03/01 08:32:24;;;;;;;28.50;15.93;;;;;;;-0.20;74.65;97267.88;10409391;28;20600;-66
2023/03/01 08:37:25;;;;;;;27.70;15.20;;;;;;;0.20;73.33;97259.06;10416631;28;20628;-65
2023/03/01 08:42:26;;;;;;;27.53;13.87;;;;;;;1.71;70.49;97245.72;10416608;28;20239;-65
2023/03/01 08:47:26;;;;;;;26.47;15.03;;;;;;;1.16;69.49;97216.13;10416651;28;20207;-65
2023/03/01 08:52:26;;;;;;;26.83;15.77;;;;;;;2.09;66.38;97194.38;10416010;28;20586;-66
2023/03/01 08:57:27;;;;;;;27.43;16.30;;;;;;;1.51;70.96;97272.69;10415137;28;21030;-66
2023/03/01 09:02:27;;;;;;;30.57;16.03;;;;;;;3.28;67.96;97253.53;10415654;28;20585;-66
2023/03/01 09:07:28;;;;;;;26.53;15.27;;;;;;;5.10;61.06;97173.81;10415478;28;20663;-65
2023/03/01 09:12:28;;;;;;;29.27;17.13;;;;;;;5.25;57.99;97117.34;10415523;28;20224;-66
2023/03/01 09:17:28;;;;;;;27.30;17.23;;;;;;;6.59;55.67;97104.56;10404988;28;20287;-67
2023/03/01 09:22:29;;;;;;;28.63;18.50;;;;;;;6.10;54.79;97096.22;10402470;28;20216;-66
2023/03/01 09:27:29;;;;;;;25.70;17.63;;;;;;;5.20;57.71;97151.44;10411802;28;20196;-67
2023/03/01 09:32:30;;;;;;;29.80;18.23;;;;;;;7.30;55.52;97150.97;10414107;28;20299;-68
2023/03/01 09:37:34;;;;;;;31.57;18.87;;;;;;;8.04;52.45;97113.56;10411369;28;20251;-66
2023/03/01 09:42:47;;;;;;;31.55;18.60;;;;;;;7.98;51.83;97101.84;10384219;28;20718;-65
2023/03/01 09:47:48;;;;;;;27.57;19.70;;;;;;;8.09;50.82;97100.94;10354038;28;20220;-66
2023/03/01 09:52:54;;;;;;;27.00;17.90;;;;;;;8.46;50.73;97121.28;10387355;28;20229;-66
2023/03/01 09:58:31;;;;;;;23.67;15.83;;;;;;;5.90;54.80;97142.75;10373177;28;20212;-64
2023/03/01 10:03:58;;;;;;;31.40;18.60;;;;;;;5.07;61.20;97265.78;10355484;28;20311;-63
2023/03/01 10:09:03;;;;;;;27.37;18.03;;;;;;;6.88;56.48;97197.78;10370088;28;20261;-64
2023/03/01 10:14:20;;;;;;;31.53;18.80;;;;;;;6.35;57.64;97201.81;10370753;28;20245;-65
2023/03/01 10:19:29;;;;;;;31.10;18.07;;;;;;;5.64;58.37;97209.72;10370588;28;20204;-64
2023/03/01 10:24:32;;;;;;;32.00;19.17;;;;;;;5.57;60.83;97270.88;10370730;28;20213;-65
2023/03/01 10:29:59;;;;;;;25.73;17.80;;;;;;;6.23;61.94;97296.41;10353972;28;20213;-65
2023/03/01 10:34:59;;;;;;;35.37;22.67;;;;;;;4.39;63.28;97267.84;10409440;28;20622;-65
2023/03/01 10:40:08;;;;;;;29.87;19.40;;;;;;;3.66;66.63;97315.84;10412033;28;20267;-66
2023/03/01 10:45:35;;;;;;;33.07;19.33;;;;;;;3.53;68.38;97328.75;10404639;28;20232;-65
2023/03/01 10:50:37;;;;;;;30.30;18.30;;;;;;;3.95;67.02;97307.09;10389617;28;20324;-63
2023/03/01 10:55:39;;;;;;;30.47;19.70;;;;;;;3.24;69.87;97340.09;10361503;28;20236;-63
2023/03/01 11:00:51;;;;;;;36.10;19.43;;;;;;;4.79;68.19;97327.41;10370299;28;20189;-65
2023/03/01 11:05:52;;;;;;;30.43;18.73;;;;;;;4.89;66.31;97282.66;10369071;28;20248;-65
2023/03/01 11:11:09;;;;;;;30.43;19.17;;;;;;;5.14;65.25;97285.16;10367933;28;20887;-63
2023/03/01 11:16:12;;;;;;;28.37;19.27;;;;;;;4.90;62.92;97219.38;10369154;28;20228;-64
2023/03/01 11:21:12;;;;;;;27.80;18.40;;;;;;;5.26;64.45;97247.09;10370180;28;20194;-64
2023/03/01 11:26:15;;;;;;;28.20;16.97;;;;;;;5.17;61.82;97199.22;10369434;28;20217;-65
2023/03/01 11:31:16;;;;;;;26.67;17.60;;;;;;;4.86;63.80;97246.50;10368861;28;20319;-64
2023/03/01 11:36:34;;;;;;;31.90;17.40;;;;;;;4.52;64.93;97248.81;10366737;28;20224;-65
2023/03/01 11:41:36;;;;;;;30.13;17.90;;;;;;;5.47;62.60;97228.31;10368236;28;20232;-64
2023/03/01 11:47:01;;;;;;;29.47;17.53;;;;;;;5.91;62.61;97242.38;10367607;28;20278;-64
2023/03/01 11:52:35;;;;;;;26.47;16.80;;;;;;;6.71;59.67;97218.16;10373169;28;20768;-65
2023/03/01 12:03:30;;;;;;;24.83;17.13;;;;;;;6.88;58.80;97201.19;10366122;28;20629;-64
2023/03/01 12:08:39;;;;;;;27.13;17.30;;;;;;;6.53;60.28;97211.75;10365754;28;20233;-63
2023/03/01 12:13:54;;;;;;;25.87;16.53;;;;;;;6.22;61.71;97245.34;10368324;28;20200;-65
2023/03/01 12:19:21;;;;;;;24.87;16.13;;;;;;;6.75;58.28;97161.44;10384840;28;20301;-65
2023/03/01 12:24:31;;;;;;;27.60;16.53;;;;;;;6.73;57.07;97129.50;10364922;28;20583;-65
2023/03/01 12:29:35;;;;;;;27.40;16.20;;;;;;;6.70;58.29;97155.78;10384344;28;20232;-65
2023/03/01 12:34:52;;;;;;;27.03;17.60;;;;;;;7.00;59.05;97168.16;10367841;28;20659;-65
2023/03/01 12:40:13;;;;;;;26.77;17.00;;;;;;;7.68;59.01;97168.66;10367187;28;20585;-65
2023/03/01 12:45:31;;;;;;;24.67;16.57;;;;;;;7.39;56.12;97105.09;10369674;28;20907;-66
2023/03/01 12:50:43;;;;;;;26.23;16.80;;;;;;;7.49;57.51;97143.31;10368744;28;20225;-66
2023/03/01 12:55:43;;;;;;;26.35;16.50;;;;;;;8.59;54.14;97099.34;10385543;28;20210;-66
2023/03/01 13:01:19;;;;;;;26.13;16.67;;;;;;;8.42;53.11;97053.78;10369710;28;20259;-63
2023/03/01 13:06:47;;;;;;;23.17;16.88;;;;;;;10.33;49.49;97026.75;10366590;28;20232;-66
2023/03/01 13:11:47;;;;;;;27.05;16.52;;;;;;;9.10;49.83;96991.16;10365888;28;20221;-64
2023/03/01 13:16:49;;;;;;;25.20;15.82;;;;;;;8.21;51.32;97018.97;10367346;28;20201;-65
2023/03/01 13:21:53;;;;;;;23.55;15.68;;;;;;;9.99;50.91;97050.06;10373283;28;20708;-66
2023/03/01 13:27:06;;;;;;;22.33;15.13;;;;;;;9.23;49.66;97007.34;10373713;28;20193;-65
2023/03/01 13:32:19;;;;;;;20.83;13.52;;;;;;;8.57;50.62;97021.97;10375019;28;20236;-64
2023/03/01 13:37:29;;;;;;;21.85;14.35;;;;;;;9.84;48.81;97010.44;10375257;28;20198;-65
2023/03/01 13:42:37;;;;;;;18.45;13.15;;;;;;;10.67;47.03;97002.56;10372621;28;20213;-64
2023/03/01 13:47:40;;;;;;;20.38;14.88;;;;;;;9.72;47.76;96988.06;10372942;28;20768;-64
2023/03/01 13:52:48;;;;;;;21.33;13.82;;;;;;;9.90;49.15;97030.00;10374153;28;20229;-63
2023/03/01 13:57:54;;;;;;;20.45;14.15;;;;;;;9.38;49.04;97017.34;10373580;28;20200;-63
2023/03/01 14:03:13;;;;;;;20.33;13.90;;;;;;;9.86;46.05;96924.78;10373121;28;20585;-64
2023/03/01 14:08:22;;;;;;;21.15;13.98;;;;;;;10.06;47.08;96977.00;10373312;28;20231;-64
2023/03/01 14:13:46;;;;;;;22.30;14.63;;;;;;;10.45;45.55;96948.81;10373127;28;20197;-62
2023/03/01 14:19:07;;;;;;;22.60;15.48;;;;;;;10.21;48.27;96980.78;10394782;28;20228;-62
2023/03/01 14:24:17;;;;;;;21.52;14.88;;;;;;;10.90;46.51;96975.88;10380974;28;20205;-63
2023/03/01 14:29:28;;;;;;;21.95;14.88;;;;;;;10.08;49.66;97028.25;10372449;28;20303;-62
2023/03/01 14:34:28;;;;;;;24.40;16.30;;;;;;;9.63;46.58;96925.19;10371304;28;20236;-64
2023/03/01 14:39:28;;;;;;;23.65;15.20;;;;;;;9.95;49.86;97023.38;10371818;28;20647;-63
2023/03/01 14:44:47;;;;;;;22.27;15.90;;;;;;;10.19;49.15;97014.16;10371761;28;20538;-62
2023/03/01 14:49:53;;;;;;;25.30;16.13;;;;;;;9.63;48.91;96987.13;10367689;28;20233;-64
2023/03/01 14:54:54;;;;;;;24.02;16.60;;;;;;;10.08;48.49;96996.84;10371554;28;20198;-64
2023/03/01 14:59:58;;;;;;;27.35;16.83;;;;;;;9.82;48.96;96996.69;10386012;28;20598;-63
2023/03/01 15:05:01;;;;;;;30.40;16.23;;;;;;;10.90;47.11;96978.50;10371035;28;20192;-63
2023/03/01 15:10:03;;;;;;;22.75;16.23;;;;;;;10.05;46.10;96921.22;10370287;28;20225;-63
2023/03/01 15:15:31;;;;;;;22.58;14.88;;;;;;;10.71;47.20;96958.53;10369640;28;20250;-62
2023/03/01 15:20:35;;;;;;;21.77;14.18;;;;;;;12.15;44.82;96970.34;10368873;28;20218;-60
2023/03/01 15:25:36;;;;;;;27.83;16.10;;;;;;;11.78;42.71;96878.63;10369467;28;20200;-61
2023/03/01 15:30:37;;;;;;;23.15;14.35;;;;;;;11.53;44.79;96939.88;10369475;28;20287;-60
2023/03/01 15:35:42;;;;;;;18.95;14.23;;;;;;;12.59;41.55;96884.19;10368765;28;20213;-62
2023/03/01 15:40:49;;;;;;;19.38;13.95;;;;;;;10.63;43.16;96858.91;10370894;28;20279;-61
2023/03/01 15:45:57;;;;;;;22.25;15.50;;;;;;;8.41;49.32;96964.19;10369090;28;20255;-61
2023/03/01 15:50:58;;;;;;;25.57;16.87;;;;;;;4.86;56.94;97041.44;10368978;28;20448;-63
2023/03/01 15:55:58;;;;;;;26.50;16.83;;;;;;;3.91;60.45;97097.34;10369547;28;20201;-63
2023/03/01 16:00:59;;;;;;;28.53;17.20;;;;;;;2.85;64.26;97154.38;10368361;28;20232;-64
2023/03/01 16:06:00;;;;;;;27.40;16.50;;;;;;;2.59;65.79;97192.25;10369742;28;20228;-63
2023/03/01 16:11:04;;;;;;;29.33;16.40;;;;;;;2.33;66.70;97196.44;10369366;28;21047;-64
2023/03/01 16:16:05;;;;;;;32.33;17.60;;;;;;;2.06;67.99;97219.59;10369414;28;20197;-64
2023/03/01 16:21:06;;;;;;;27.73;16.63;;;;;;;1.74;69.95;97242.97;10369475;28;20623;-64
2023/03/01 16:26:06;;;;;;;29.97;16.87;;;;;;;1.49;71.07;97249.53;10367981;28;20296;-64
2023/03/01 16:31:06;;;;;;;31.37;16.30;;;;;;;1.06;72.30;97265.66;10369292;28;20233;-62
2023/03/01 16:36:11;;;;;;;33.70;17.90;;;;;;;0.61;74.01;97274.94;10369026;28;20201;-64
2023/03/01 16:41:13;;;;;;;33.33;19.23;;;;;;;-0.42;78.36;97308.47;10368759;28;20224;-63
2023/03/01 16:46:20;;;;;;;33.00;17.40;;;;;;;-0.72;80.36;97320.13;10369264;28;20193;-64
2023/03/01 16:51:21;;;;;;;30.97;16.60;;;;;;;-0.73;80.85;97304.78;10368626;28;20608;-64
2023/03/01 16:56:22;;;;;;;33.27;16.10;;;;;;;-1.00;82.89;97312.00;10373253;28;20645;-62
2023/03/01 17:01:25;;;;;;;32.07;16.57;;;;;;;-1.53;84.85;97314.34;10376229;28;20324;-63
2023/03/01 17:06:26;;;;;;;33.27;17.10;;;;;;;-1.82;91.54;97324.13;10376053;28;20280;-63
2023/03/01 17:11:26;;;;;;;31.00;17.60;;;;;;;-2.00;97.30;97322.34;10375821;28;20228;-63
2023/03/01 17:16:27;;;;;;;31.17;15.33;;;;;;;-2.15;100.00;97324.63;10374063;28;20607;-63
2023/03/01 17:21:27;;;;;;;41.10;21.13;;;;;;;-2.18;100.00;97326.50;10375574;28;20675;-63
2023/03/01 17:26:28;;;;;;;37.07;20.13;;;;;;;-2.19;100.00;97328.22;10376883;28;20715;-63
2023/03/01 17:31:28;;;;;;;38.23;20.83;;;;;;;-2.16;100.00;97322.97;10375808;28;20745;-63
2023/03/01 17:36:28;;;;;;;39.77;18.83;;;;;;;-2.33;100.00;97307.41;10375882;28;20190;-62
2023/03/01 17:41:29;;;;;;;44.07;20.03;;;;;;;-2.45;100.00;97310.47;10375380;28;20252;-64
2023/03/01 17:46:29;;;;;;;37.60;18.57;;;;;;;-2.51;100.00;97314.13;10376348;28;20280;-63
2023/03/01 17:51:30;;;;;;;36.17;18.17;;;;;;;-2.72;100.00;97311.50;10375494;28;20248;-64
2023/03/01 17:56:32;;;;;;;34.73;18.37;;;;;;;-2.77;100.00;97310.84;10370803;28;20189;-64
2023/03/01 18:01:34;;;;;;;33.03;16.87;;;;;;;-2.95;100.00;97314.94;10371761;28;20238;-64
2023/03/01 18:06:35;;;;;;;40.53;18.20;;;;;;;-2.93;100.00;97318.28;10372858;28;20208;-63
2023/03/01 18:11:36;;;;;;;42.03;21.63;;;;;;;-2.90;100.00;97327.59;10375067;28;20260;-63
2023/03/01 18:16:38;;;;;;;34.10;18.07;;;;;;;-2.85;100.00;97330.81;10374123;28;20557;-63
2023/03/01 18:21:38;;;;;;;38.50;18.10;;;;;;;-2.98;100.00;97329.63;10371587;28;20300;-62
2023/03/01 18:26:39;;;;;;;33.37;16.87;;;;;;;-3.07;100.00;97321.38;10370674;28;20256;-63
2023/03/01 18:31:39;;;;;;;36.30;16.83;;;;;;;-3.10;100.00;97325.78;10369541;28;20221;-63
2023/03/01 18:36:39;;;;;;;36.03;17.17;;;;;;;-3.23;100.00;97310.84;10369948;28;20714;-63
2023/03/01 18:41:40;;;;;;;32.30;16.13;;;;;;;-3.36;100.00;97304.50;10372401;28;20707;-64
2023/03/01 18:46:40;;;;;;;36.23;16.63;;;;;;;-3.41;100.00;97306.41;10372756;28;20310;-64
2023/03/01 18:51:41;;;;;;;34.40;15.87;;;;;;;-3.53;100.00;97304.28;10371806;28;20229;-64
2023/03/01 18:56:42;;;;;;;28.30;15.60;;;;;;;-3.52;100.00;97300.81;10371010;28;20209;-64
2023/03/01 19:01:42;;;;;;;30.93;15.87;;;;;;;-3.43;100.00;97303.03;10369651;28;20311;-65
2023/03/01 19:06:42;;;;;;;37.17;19.83;;;;;;;-3.45;100.00;97299.72;10369192;28;20201;-65
2023/03/01 19:11:43;;;;;;;31.07;16.30;;;;;;;-3.50;100.00;97296.50;10370397;28;20217;-65
2023/03/01 19:16:43;;;;;;;32.73;16.27;;;;;;;-3.67;100.00;97304.78;10371231;28;20200;-65
2023/03/01 19:21:43;;;;;;;36.40;18.47;;;;;;;-4.00;100.00;97313.56;10371314;28;20746;-65
2023/03/01 19:26:44;;;;;;;33.43;16.10;;;;;;;-4.19;100.00;97305.66;10370668;28;20746;-65
2023/03/01 19:31:44;;;;;;;42.93;21.20;;;;;;;-3.96;100.00;97319.41;10371261;28;20237;-65
2023/03/01 19:36:46;;;;;;;33.27;17.40;;;;;;;-3.81;100.00;97318.06;10369097;28;20199;-65
2023/03/01 19:41:47;;;;;;;34.73;16.93;;;;;;;-3.84;100.00;97303.63;10368633;28;20640;-64
2023/03/01 19:46:47;;;;;;;32.97;15.83;;;;;;;-3.95;100.00;97300.63;10369862;28;20287;-64
2023/03/01 19:51:47;;;;;;;27.83;12.00;;;;;;;-4.03;100.00;97302.59;10370170;28;20232;-64
2023/03/01 19:56:49;;;;;;;30.47;15.77;;;;;;;-4.23;100.00;97285.34;10370234;28;20197;-64
2023/03/01 20:01:50;;;;;;;31.23;16.60;;;;;;;-4.32;100.00;97286.50;10367193;28;20670;-67
2023/03/01 20:06:51;;;;;;;21.33;10.87;;;;;;;-4.20;100.00;97286.06;10366865;28;20197;-66
2023/03/01 20:11:51;;;;;;;36.40;17.13;;;;;;;-4.26;100.00;97295.69;10367142;28;20221;-64
2023/03/01 20:16:51;;;;;;;34.63;16.77;;;;;;;-4.36;100.00;97301.09;10365888;28;20291;-65
2023/03/01 20:21:52;;;;;;;29.80;15.03;;;;;;;-4.42;100.00;97303.88;10374276;28;20216;-64
2023/03/01 20:26:52;;;;;;;34.27;15.20;;;;;;;-4.41;100.00;97303.00;10375018;28;20694;-65
2023/03/01 20:31:52;;;;;;;31.10;15.27;;;;;;;-4.48;100.00;97309.19;10377326;28;20707;-64
2023/03/01 20:36:53;;;;;;;28.47;12.27;;;;;;;-4.48;100.00;97312.56;10374943;28;20689;-67
2023/03/01 20:41:53;;;;;;;31.67;15.10;;;;;;;-4.50;100.00;97303.28;10375694;28;20239;-67
2023/03/01 20:46:54;;;;;;;29.83;15.43;;;;;;;-4.42;100.00;97287.69;10377231;28;20715;-65
2023/03/01 20:51:54;;;;;;;32.40;16.03;;;;;;;-4.47;100.00;97290.41;10376980;28;20217;-65
2023/03/01 20:56:54;;;;;;;25.70;13.33;;;;;;;-4.48;100.00;97283.59;10374652;28;20231;-65
2023/03/01 21:01:55;;;;;;;32.67;15.43;;;;;;;-4.48;100.00;97281.88;10374577;28;20241;-65
2023/03/01 21:06:55;;;;;;;30.77;14.20;;;;;;;-4.48;100.00;97275.94;10375786;28;20296;-65
2023/03/01 21:11:56;;;;;;;30.47;14.60;;;;;;;-4.73;100.00;97281.84;10375844;28;20281;-65
2023/03/01 21:16:56;;;;;;;28.67;14.53;;;;;;;-4.67;100.00;97270.56;10375772;28;20216;-67
2023/03/01 21:21:57;;;;;;;26.80;13.07;;;;;;;-4.81;100.00;97277.84;10375894;28;20291;-65
2023/03/01 21:26:58;;;;;;;26.67;12.67;;;;;;;-4.84;100.00;97287.28;10376086;28;20200;-65
2023/03/01 21:31:58;;;;;;;32.67;13.80;;;;;;;-4.99;100.00;97280.09;10375517;28;20228;-65
2023/03/01 21:37:00;;;;;;;27.50;13.40;;;;;;;-4.90;100.00;97264.47;10375037;28;20223;-65
2023/03/01 21:42:01;;;;;;;28.60;12.70;;;;;;;-4.99;100.00;97264.75;10373874;28;20587;-65
2023/03/01 21:47:02;;;;;;;16.70;7.87;;;;;;;-4.89;100.00;97258.47;10374650;28;20267;-65
2023/03/01 21:52:03;;;;;;;28.63;13.50;;;;;;;-5.02;100.00;97250.34;10374944;28;20239;-65
2023/03/01 21:57:03;;;;;;;32.10;13.40;;;;;;;-5.03;100.00;97251.22;10374456;28;20322;-65
2023/03/01 22:02:04;;;;;;;21.53;9.40;;;;;;;-4.89;100.00;97255.09;10389618;28;20375;-65
2023/03/01 22:07:04;;;;;;;26.33;12.87;;;;;;;-4.94;100.00;97254.41;10374260;28;20196;-65
2023/03/01 22:12:05;;;;;;;26.27;13.03;;;;;;;-5.10;100.00;97246.34;10365972;28;20315;-63
2023/03/01 22:17:05;;;;;;;27.37;12.10;;;;;;;-5.36;100.00;97242.88;10333439;28;20196;-60
2023/03/01 22:22:06;;;;;;;28.00;12.43;;;;;;;-5.53;100.00;97233.16;10333396;28;20217;-63
2023/03/01 22:27:06;;;;;;;29.90;14.10;;;;;;;-5.52;100.00;97232.28;10333689;28;20197;-63
2023/03/01 22:32:06;;;;;;;37.37;16.27;;;;;;;-5.64;100.00;97230.91;10333244;28;20236;-62
2023/03/01 22:37:07;;;;;;;26.13;12.70;;;;;;;-5.42;100.00;97226.03;10332641;28;20271;-63
2023/03/01 22:42:08;;;;;;;29.83;13.27;;;;;;;-5.21;100.00;97227.13;10333127;28;20209;-63
2023/03/01 22:47:09;;;;;;;27.30;12.67;;;;;;;-5.16;100.00;97221.00;10332384;28;20204;-60
2023/03/01 22:52:09;;;;;;;24.37;12.40;;;;;;;-5.24;100.00;97216.13;10332413;28;20224;-63
2023/03/01 22:57:10;;;;;;;30.97;14.03;;;;;;;-5.28;100.00;97215.41;10327615;28;20285;-63
2023/03/01 23:02:10;;;;;;;34.17;14.63;;;;;;;-5.26;100.00;97228.94;10338840;28;20327;-63
2023/03/01 23:07:10;;;;;;;29.50;14.10;;;;;;;-5.53;100.00;97219.56;10332789;28;20208;-63